Titan — ZCED2 — position and weather

sailwx.info

Track history (hours):
 
Tides and Currents Weather Stations Pressure Air Temp Water Temp Dewpoint Dewpoint Depression Visibility Wind Speed Wind Dir Waves Ship Positions

Titan

Last reported at 2016-Sep-16 12:33 UTC. Time now 2016-Sep-24 20:58 UTC.
Position N 39°28' E 002°28'.
Warning: this ship's position is 8 days out of date.

Length 80 m; draft 3.5 m.

Type: Pleasure craft. MMSI: 310598000.

Date/timePositionNaut miles runAvg speedWind from/ knotsBaromVisibWave heightAir tempDewpointWater temp
2016-Sep-16 12:33N 39°28' E 002°28'5 1.7
2016-Sep-16 09:31N 39°31' E 002°33'12 5.9
2016-Sep-16 07:33N 39°20' E 002°36'4411.0
2016-Sep-16 03:32N 39°03' E 003°29'45813.0
2016-Sep-14 16:17N 38°26' E 013°15'8013.9
2016-Sep-14 10:31N 38°20' E 014°57'1313.7
2016-Sep-14 09:34N 38°20' E 015°13'1312.7
2016-Sep-14 08:33N 38°21' E 015°30'1110.7
2016-Sep-14 07:33N 38°16' E 015°42'1111.0
2016-Sep-14 06:33N 38°06' E 015°37'  
2016-Sep-07 09:13N 37°50' E 015°58'913.2
2016-Sep-07 08:33N 37°50' E 015°47'1312.8
2016-Sep-07 07:33N 37°58' E 015°34'1413.8
2016-Sep-07 06:33N 38°11' E 015°35'2411.9
2016-Sep-07 04:33N 38°35' E 015°30'2013.8
2016-Sep-07 03:06N 38°53' E 015°19'  
Track history (hours):
 
Tides and Currents Weather Stations Pressure Air Temp Water Temp Dewpoint Dewpoint Depression Visibility Wind Speed Wind Dir Waves Ship Positions

Titan

Last reported at 2016-Sep-16 12:33 UTC. Time now 2016-Sep-24 20:58 UTC.
Position N 39°28' E 002°28'.
Warning: this ship's position is 8 days out of date.

Length 80 m; draft 3.5 m.

Type: Pleasure craft. MMSI: 310598000.

Date/timePositionNaut miles runAvg speedWind from/ knotsBaromVisibWave heightAir tempDewpointWater temp
2016-Sep-16 12:33N 39°28' E 002°28'5 1.7
2016-Sep-16 09:31N 39°31' E 002°33'12 5.9
2016-Sep-16 07:33N 39°20' E 002°36'4411.0
2016-Sep-16 03:32N 39°03' E 003°29'45813.0
2016-Sep-14 16:17N 38°26' E 013°15'8013.9
2016-Sep-14 10:31N 38°20' E 014°57'1313.7
2016-Sep-14 09:34N 38°20' E 015°13'1312.7
2016-Sep-14 08:33N 38°21' E 015°30'1110.7
2016-Sep-14 07:33N 38°16' E 015°42'1111.0
2016-Sep-14 06:33N 38°06' E 015°37'  
2016-Sep-07 09:13N 37°50' E 015°58'913.2
2016-Sep-07 08:33N 37°50' E 015°47'1312.8
2016-Sep-07 07:33N 37°58' E 015°34'1413.8
2016-Sep-07 06:33N 38°11' E 015°35'2411.9
2016-Sep-07 04:33N 38°35' E 015°30'2013.8
2016-Sep-07 03:06N 38°53' E 015°19'  

Dump ship's entire track history